sensor_id;sensor_type;location;lat;lon;timestamp;P1;durP1;ratioP1;P2;durP2;ratioP2
22786;SDS011;63134;52.020;4.714;2022-10-31T00:02:03;16.25;;;7.22;;
22786;SDS011;63134;52.020;4.714;2022-10-31T00:04:48;14.20;;;6.85;;
22786;SDS011;63134;52.020;4.714;2022-10-31T00:07:34;14.07;;;7.72;;
22786;SDS011;63134;52.020;4.714;2022-10-31T00:10:19;13.07;;;6.60;;
22786;SDS011;63134;52.020;4.714;2022-10-31T00:13:05;13.30;;;6.72;;
22786;SDS011;63134;52.020;4.714;2022-10-31T00:15:51;19.50;;;6.47;;
22786;SDS011;63134;52.020;4.714;2022-10-31T00:18:37;11.73;;;6.70;;
22786;SDS011;63134;52.020;4.714;2022-10-31T00:21:23;14.27;;;6.68;;
22786;SDS011;63134;52.020;4.714;2022-10-31T00:24:10;16.85;;;7.85;;
22786;SDS011;63134;52.020;4.714;2022-10-31T00:26:55;12.63;;;7.05;;
22786;SDS011;63134;52.020;4.714;2022-10-31T00:29:46;9.32;;;6.47;;
22786;SDS011;63134;52.020;4.714;2022-10-31T00:32:31;15.90;;;7.35;;
22786;SDS011;63134;52.020;4.714;2022-10-31T00:35:17;11.13;;;7.28;;
22786;SDS011;63134;52.020;4.714;2022-10-31T00:38:02;13.15;;;8.05;;
22786;SDS011;63134;52.020;4.714;2022-10-31T00:40:47;13.52;;;7.38;;
22786;SDS011;63134;52.020;4.714;2022-10-31T00:43:33;17.02;;;8.07;;
22786;SDS011;63134;52.020;4.714;2022-10-31T00:46:19;15.02;;;6.85;;
22786;SDS011;63134;52.020;4.714;2022-10-31T00:49:06;13.73;;;7.82;;
22786;SDS011;63134;52.020;4.714;2022-10-31T00:51:52;13.57;;;8.18;;
22786;SDS011;63134;52.020;4.714;2022-10-31T00:54:37;16.50;;;8.55;;
22786;SDS011;63134;52.020;4.714;2022-10-31T00:57:23;14.35;;;8.50;;
22786;SDS011;63134;52.020;4.714;2022-10-31T01:00:08;15.23;;;9.55;;
22786;SDS011;63134;52.020;4.714;2022-10-31T01:02:54;17.08;;;9.60;;
22786;SDS011;63134;52.020;4.714;2022-10-31T01:05:40;29.13;;;11.43;;
22786;SDS011;63134;52.020;4.714;2022-10-31T01:08:26;18.77;;;11.38;;
22786;SDS011;63134;52.020;4.714;2022-10-31T01:11:25;21.88;;;11.93;;
22786;SDS011;63134;52.020;4.714;2022-10-31T01:14:10;26.10;;;13.27;;
22786;SDS011;63134;52.020;4.714;2022-10-31T01:17:05;20.95;;;13.13;;
22786;SDS011;63134;52.020;4.714;2022-10-31T01:19:50;26.30;;;13.65;;
22786;SDS011;63134;52.020;4.714;2022-10-31T01:22:36;23.40;;;13.93;;
22786;SDS011;63134;52.020;4.714;2022-10-31T01:25:21;22.08;;;13.60;;
22786;SDS011;63134;52.020;4.714;2022-10-31T01:28:07;21.77;;;13.05;;
22786;SDS011;63134;52.020;4.714;2022-10-31T01:31:05;21.58;;;12.60;;
22786;SDS011;63134;52.020;4.714;2022-10-31T01:33:53;20.58;;;11.90;;
22786;SDS011;63134;52.020;4.714;2022-10-31T01:36:41;19.98;;;12.38;;
22786;SDS011;63134;52.020;4.714;2022-10-31T01:39:29;26.50;;;12.43;;
22786;SDS011;63134;52.020;4.714;2022-10-31T01:42:16;19.52;;;12.45;;
22786;SDS011;63134;52.020;4.714;2022-10-31T01:45:04;22.60;;;12.27;;
22786;SDS011;63134;52.020;4.714;2022-10-31T01:47:55;19.42;;;12.43;;
22786;SDS011;63134;52.020;4.714;2022-10-31T01:50:41;19.95;;;12.32;;
22786;SDS011;63134;52.020;4.714;2022-10-31T01:53:30;20.63;;;11.90;;
22786;SDS011;63134;52.020;4.714;2022-10-31T01:56:17;23.75;;;12.18;;
22786;SDS011;63134;52.020;4.714;2022-10-31T01:59:02;21.38;;;12.98;;
22786;SDS011;63134;52.020;4.714;2022-10-31T02:01:52;28.35;;;15.82;;
22786;SDS011;63134;52.020;4.714;2022-10-31T02:04:39;34.45;;;18.63;;
22786;SDS011;63134;52.020;4.714;2022-10-31T02:08:02;23.73;;;16.35;;
22786;SDS011;63134;52.020;4.714;2022-10-31T02:10:45;28.00;;;18.23;;
22786;SDS011;63134;52.020;4.714;2022-10-31T02:13:30;32.00;;;20.65;;
22786;SDS011;63134;52.020;4.714;2022-10-31T02:16:18;36.33;;;20.60;;
22786;SDS011;63134;52.020;4.714;2022-10-31T02:19:04;37.80;;;24.02;;
22786;SDS011;63134;52.020;4.714;2022-10-31T02:25:02;44.13;;;26.33;;
22786;SDS011;63134;52.020;4.714;2022-10-31T02:28:00;44.40;;;25.90;;
22786;SDS011;63134;52.020;4.714;2022-10-31T02:34:35;40.90;;;24.83;;
22786;SDS011;63134;52.020;4.714;2022-10-31T02:37:34;41.08;;;24.83;;
22786;SDS011;63134;52.020;4.714;2022-10-31T02:40:35;39.20;;;23.08;;
22786;SDS011;63134;52.020;4.714;2022-10-31T02:44:08;39.53;;;25.70;;
22786;SDS011;63134;52.020;4.714;2022-10-31T02:47:01;40.17;;;25.08;;
22786;SDS011;63134;52.020;4.714;2022-10-31T02:52:42;40.10;;;25.77;;
22786;SDS011;63134;52.020;4.714;2022-10-31T02:58:17;40.88;;;25.67;;
22786;SDS011;63134;52.020;4.714;2022-10-31T03:16:35;51.17;;;32.95;;
22786;SDS011;63134;52.020;4.714;2022-10-31T03:19:42;50.97;;;35.75;;
22786;SDS011;63134;52.020;4.714;2022-10-31T03:22:31;70.75;;;38.38;;
22786;SDS011;63134;52.020;4.714;2022-10-31T03:25:18;62.00;;;38.40;;
22786;SDS011;63134;52.020;4.714;2022-10-31T03:28:03;67.28;;;39.85;;
22786;SDS011;63134;52.020;4.714;2022-10-31T03:30:50;66.53;;;40.15;;
22786;SDS011;63134;52.020;4.714;2022-10-31T03:33:37;73.57;;;41.42;;
22786;SDS011;63134;52.020;4.714;2022-10-31T03:36:25;65.20;;;40.65;;
22786;SDS011;63134;52.020;4.714;2022-10-31T03:39:13;71.75;;;42.05;;
22786;SDS011;63134;52.020;4.714;2022-10-31T03:42:18;76.53;;;43.53;;
22786;SDS011;63134;52.020;4.714;2022-10-31T03:45:11;82.90;;;44.78;;
22786;SDS011;63134;52.020;4.714;2022-10-31T03:48:03;82.75;;;43.10;;
22786;SDS011;63134;52.020;4.714;2022-10-31T03:50:58;79.45;;;46.20;;
22786;SDS011;63134;52.020;4.714;2022-10-31T03:57:35;85.15;;;47.63;;
22786;SDS011;63134;52.020;4.714;2022-10-31T04:00:28;76.40;;;46.03;;
22786;SDS011;63134;52.020;4.714;2022-10-31T04:03:29;82.15;;;47.40;;
22786;SDS011;63134;52.020;4.714;2022-10-31T04:06:19;87.63;;;48.47;;
22786;SDS011;63134;52.020;4.714;2022-10-31T04:09:06;91.43;;;50.10;;
22786;SDS011;63134;52.020;4.714;2022-10-31T04:11:54;82.68;;;47.45;;
22786;SDS011;63134;52.020;4.714;2022-10-31T04:14:53;82.75;;;50.85;;
22786;SDS011;63134;52.020;4.714;2022-10-31T04:17:41;78.75;;;49.30;;
22786;SDS011;63134;52.020;4.714;2022-10-31T04:20:31;88.35;;;51.38;;
22786;SDS011;63134;52.020;4.714;2022-10-31T04:23:23;88.30;;;50.65;;
22786;SDS011;63134;52.020;4.714;2022-10-31T04:26:11;107.80;;;54.42;;
22786;SDS011;63134;52.020;4.714;2022-10-31T04:28:57;96.45;;;51.08;;
22786;SDS011;63134;52.020;4.714;2022-10-31T04:31:44;107.65;;;54.35;;
22786;SDS011;63134;52.020;4.714;2022-10-31T04:34:29;112.47;;;55.40;;
22786;SDS011;63134;52.020;4.714;2022-10-31T04:37:15;115.60;;;59.42;;
22786;SDS011;63134;52.020;4.714;2022-10-31T04:40:00;118.07;;;59.25;;
22786;SDS011;63134;52.020;4.714;2022-10-31T04:43:15;123.22;;;59.95;;
22786;SDS011;63134;52.020;4.714;2022-10-31T04:46:11;111.90;;;55.85;;
22786;SDS011;63134;52.020;4.714;2022-10-31T04:48:56;120.63;;;56.73;;
22786;SDS011;63134;52.020;4.714;2022-10-31T04:51:42;117.05;;;56.40;;
22786;SDS011;63134;52.020;4.714;2022-10-31T04:54:27;126.32;;;57.33;;
22786;SDS011;63134;52.020;4.714;2022-10-31T04:57:45;117.40;;;56.55;;
22786;SDS011;63134;52.020;4.714;2022-10-31T05:00:36;118.70;;;58.42;;
22786;SDS011;63134;52.020;4.714;2022-10-31T05:03:27;137.70;;;60.10;;
22786;SDS011;63134;52.020;4.714;2022-10-31T05:06:13;138.32;;;63.10;;
22786;SDS011;63134;52.020;4.714;2022-10-31T05:08:59;146.82;;;61.30;;
22786;SDS011;63134;52.020;4.714;2022-10-31T05:11:45;151.63;;;63.85;;
22786;SDS011;63134;52.020;4.714;2022-10-31T05:15:04;171.38;;;66.13;;
22786;SDS011;63134;52.020;4.714;2022-10-31T05:21:13;174.35;;;64.80;;
22786;SDS011;63134;52.020;4.714;2022-10-31T05:24:05;177.40;;;70.55;;
22786;SDS011;63134;52.020;4.714;2022-10-31T05:26:57;186.38;;;69.05;;
22786;SDS011;63134;52.020;4.714;2022-10-31T05:29:42;177.95;;;69.95;;
22786;SDS011;63134;52.020;4.714;2022-10-31T05:32:28;196.63;;;73.03;;
22786;SDS011;63134;52.020;4.714;2022-10-31T05:35:43;198.33;;;75.20;;
22786;SDS011;63134;52.020;4.714;2022-10-31T05:38:49;201.27;;;76.30;;
22786;SDS011;63134;52.020;4.714;2022-10-31T05:41:42;187.50;;;75.82;;
22786;SDS011;63134;52.020;4.714;2022-10-31T05:44:33;191.73;;;75.18;;
22786;SDS011;63134;52.020;4.714;2022-10-31T05:47:41;182.50;;;75.65;;
22786;SDS011;63134;52.020;4.714;2022-10-31T05:50:56;197.95;;;76.20;;
22786;SDS011;63134;52.020;4.714;2022-10-31T05:53:42;181.88;;;75.20;;
22786;SDS011;63134;52.020;4.714;2022-10-31T05:56:30;188.18;;;76.03;;
22786;SDS011;63134;52.020;4.714;2022-10-31T05:59:15;195.93;;;77.35;;
22786;SDS011;63134;52.020;4.714;2022-10-31T06:02:01;197.02;;;79.93;;
22786;SDS011;63134;52.020;4.714;2022-10-31T06:05:06;203.30;;;77.07;;
22786;SDS011;63134;52.020;4.714;2022-10-31T06:07:52;199.85;;;78.78;;
22786;SDS011;63134;52.020;4.714;2022-10-31T06:10:37;187.23;;;76.28;;
22786;SDS011;63134;52.020;4.714;2022-10-31T06:13:23;235.27;;;81.18;;
22786;SDS011;63134;52.020;4.714;2022-10-31T06:16:18;311.27;;;82.15;;
22786;SDS011;63134;52.020;4.714;2022-10-31T06:19:03;467.08;;;91.50;;
22786;SDS011;63134;52.020;4.714;2022-10-31T06:21:48;406.98;;;88.32;;
22786;SDS011;63134;52.020;4.714;2022-10-31T06:24:34;384.27;;;86.65;;
22786;SDS011;63134;52.020;4.714;2022-10-31T06:30:30;498.08;;;85.00;;
22786;SDS011;63134;52.020;4.714;2022-10-31T06:33:16;533.47;;;90.72;;
22786;SDS011;63134;52.020;4.714;2022-10-31T06:36:12;627.47;;;98.32;;
22786;SDS011;63134;52.020;4.714;2022-10-31T06:38:57;375.25;;;83.32;;
22786;SDS011;63134;52.020;4.714;2022-10-31T06:41:43;382.75;;;82.63;;
22786;SDS011;63134;52.020;4.714;2022-10-31T06:44:34;368.13;;;84.75;;
22786;SDS011;63134;52.020;4.714;2022-10-31T06:47:38;308.92;;;78.03;;
22786;SDS011;63134;52.020;4.714;2022-10-31T06:50:46;319.63;;;78.47;;
22786;SDS011;63134;52.020;4.714;2022-10-31T06:53:31;351.02;;;82.82;;
22786;SDS011;63134;52.020;4.714;2022-10-31T06:56:17;349.15;;;80.82;;
22786;SDS011;63134;52.020;4.714;2022-10-31T06:59:08;474.05;;;92.75;;
22786;SDS011;63134;52.020;4.714;2022-10-31T07:02:13;421.08;;;91.10;;
22786;SDS011;63134;52.020;4.714;2022-10-31T07:05:02;417.50;;;89.88;;
22786;SDS011;63134;52.020;4.714;2022-10-31T07:07:51;420.60;;;88.80;;
22786;SDS011;63134;52.020;4.714;2022-10-31T07:10:40;515.50;;;92.07;;
22786;SDS011;63134;52.020;4.714;2022-10-31T07:13:27;489.48;;;91.70;;
22786;SDS011;63134;52.020;4.714;2022-10-31T07:16:22;601.50;;;94.28;;
22786;SDS011;63134;52.020;4.714;2022-10-31T07:19:08;484.13;;;92.93;;
22786;SDS011;63134;52.020;4.714;2022-10-31T07:21:57;553.00;;;89.78;;
22786;SDS011;63134;52.020;4.714;2022-10-31T07:24:45;505.67;;;90.35;;
22786;SDS011;63134;52.020;4.714;2022-10-31T07:28:03;614.58;;;106.57;;
22786;SDS011;63134;52.020;4.714;2022-10-31T07:30:51;432.30;;;94.53;;
22786;SDS011;63134;52.020;4.714;2022-10-31T07:33:41;566.42;;;100.55;;
22786;SDS011;63134;52.020;4.714;2022-10-31T07:36:52;432.75;;;84.28;;
22786;SDS011;63134;52.020;4.714;2022-10-31T07:39:38;503.83;;;93.60;;
22786;SDS011;63134;52.020;4.714;2022-10-31T07:42:24;474.95;;;87.05;;
22786;SDS011;63134;52.020;4.714;2022-10-31T07:45:10;486.77;;;88.43;;
22786;SDS011;63134;52.020;4.714;2022-10-31T07:48:27;474.52;;;88.65;;
22786;SDS011;63134;52.020;4.714;2022-10-31T07:51:31;489.80;;;90.32;;
22786;SDS011;63134;52.020;4.714;2022-10-31T07:54:36;465.00;;;85.03;;
22786;SDS011;63134;52.020;4.714;2022-10-31T07:57:21;440.92;;;83.72;;
22786;SDS011;63134;52.020;4.714;2022-10-31T08:00:09;564.20;;;95.97;;
22786;SDS011;63134;52.020;4.714;2022-10-31T08:03:01;462.80;;;83.28;;
22786;SDS011;63134;52.020;4.714;2022-10-31T08:06:10;415.10;;;83.50;;
22786;SDS011;63134;52.020;4.714;2022-10-31T08:09:34;396.75;;;85.85;;
22786;SDS011;63134;52.020;4.714;2022-10-31T08:12:35;385.05;;;78.85;;
22786;SDS011;63134;52.020;4.714;2022-10-31T08:15:24;329.42;;;75.70;;
22786;SDS011;63134;52.020;4.714;2022-10-31T08:18:13;472.73;;;81.57;;
22786;SDS011;63134;52.020;4.714;2022-10-31T08:21:00;472.42;;;84.95;;
22786;SDS011;63134;52.020;4.714;2022-10-31T08:23:45;393.50;;;81.13;;
22786;SDS011;63134;52.020;4.714;2022-10-31T08:26:31;306.55;;;77.75;;
22786;SDS011;63134;52.020;4.714;2022-10-31T08:29:17;243.27;;;76.35;;
22786;SDS011;63134;52.020;4.714;2022-10-31T08:32:04;199.48;;;72.00;;
22786;SDS011;63134;52.020;4.714;2022-10-31T08:35:08;177.30;;;68.32;;
22786;SDS011;63134;52.020;4.714;2022-10-31T08:38:13;173.02;;;68.07;;
22786;SDS011;63134;52.020;4.714;2022-10-31T08:40:59;156.75;;;65.82;;
22786;SDS011;63134;52.020;4.714;2022-10-31T08:43:45;136.77;;;60.95;;
22786;SDS011;63134;52.020;4.714;2022-10-31T08:46:32;132.02;;;60.28;;
22786;SDS011;63134;52.020;4.714;2022-10-31T08:49:19;109.28;;;56.90;;
22786;SDS011;63134;52.020;4.714;2022-10-31T08:52:04;101.85;;;53.33;;
22786;SDS011;63134;52.020;4.714;2022-10-31T08:55:00;100.50;;;51.92;;
22786;SDS011;63134;52.020;4.714;2022-10-31T08:58:18;88.03;;;48.53;;
22786;SDS011;63134;52.020;4.714;2022-10-31T09:01:09;83.32;;;45.88;;
22786;SDS011;63134;52.020;4.714;2022-10-31T09:03:57;73.20;;;42.55;;
22786;SDS011;63134;52.020;4.714;2022-10-31T09:06:43;59.13;;;39.55;;
22786;SDS011;63134;52.020;4.714;2022-10-31T09:09:49;52.53;;;34.55;;
22786;SDS011;63134;52.020;4.714;2022-10-31T09:12:36;46.92;;;32.15;;
22786;SDS011;63134;52.020;4.714;2022-10-31T09:15:41;39.35;;;27.52;;
22786;SDS011;63134;52.020;4.714;2022-10-31T09:21:21;36.80;;;25.42;;
22786;SDS011;63134;52.020;4.714;2022-10-31T09:24:07;32.78;;;21.88;;
22786;SDS011;63134;52.020;4.714;2022-10-31T09:26:55;38.10;;;23.85;;
22786;SDS011;63134;52.020;4.714;2022-10-31T09:29:44;38.20;;;22.55;;
22786;SDS011;63134;52.020;4.714;2022-10-31T09:32:30;34.10;;;24.15;;
22786;SDS011;63134;52.020;4.714;2022-10-31T09:35:16;37.42;;;24.98;;
22786;SDS011;63134;52.020;4.714;2022-10-31T09:38:07;39.63;;;24.60;;
22786;SDS011;63134;52.020;4.714;2022-10-31T09:41:04;33.55;;;23.63;;
22786;SDS011;63134;52.020;4.714;2022-10-31T09:44:39;29.63;;;21.42;;
22786;SDS011;63134;52.020;4.714;2022-10-31T09:51:07;33.75;;;22.40;;
22786;SDS011;63134;52.020;4.714;2022-10-31T09:54:12;36.72;;;24.15;;
22786;SDS011;63134;52.020;4.714;2022-10-31T09:57:01;39.45;;;22.40;;
22786;SDS011;63134;52.020;4.714;2022-10-31T09:59:49;34.67;;;23.45;;
22786;SDS011;63134;52.020;4.714;2022-10-31T10:02:40;35.42;;;22.95;;
22786;SDS011;63134;52.020;4.714;2022-10-31T10:05:51;32.08;;;22.63;;
22786;SDS011;63134;52.020;4.714;2022-10-31T10:09:19;35.65;;;22.75;;
22786;SDS011;63134;52.020;4.714;2022-10-31T10:12:58;35.33;;;22.65;;
22786;SDS011;63134;52.020;4.714;2022-10-31T10:16:05;35.05;;;21.52;;
22786;SDS011;63134;52.020;4.714;2022-10-31T10:22:22;34.50;;;21.50;;
22786;SDS011;63134;52.020;4.714;2022-10-31T10:25:31;32.57;;;21.23;;
22786;SDS011;63134;52.020;4.714;2022-10-31T10:28:26;38.47;;;21.00;;
22786;SDS011;63134;52.020;4.714;2022-10-31T10:31:15;34.20;;;22.17;;
22786;SDS011;63134;52.020;4.714;2022-10-31T10:34:17;31.88;;;19.40;;
22786;SDS011;63134;52.020;4.714;2022-10-31T10:37:20;35.13;;;20.85;;
22786;SDS011;63134;52.020;4.714;2022-10-31T10:40:17;33.70;;;19.20;;
22786;SDS011;63134;52.020;4.714;2022-10-31T10:46:19;25.95;;;18.95;;
22786;SDS011;63134;52.020;4.714;2022-10-31T10:49:40;31.73;;;18.88;;
22786;SDS011;63134;52.020;4.714;2022-10-31T10:58:58;27.55;;;18.52;;
22786;SDS011;63134;52.020;4.714;2022-10-31T11:01:43;36.38;;;18.92;;
22786;SDS011;63134;52.020;4.714;2022-10-31T11:04:34;27.67;;;18.20;;
22786;SDS011;63134;52.020;4.714;2022-10-31T11:07:20;28.33;;;18.05;;
22786;SDS011;63134;52.020;4.714;2022-10-31T11:10:11;24.10;;;17.55;;
22786;SDS011;63134;52.020;4.714;2022-10-31T11:13:05;30.48;;;17.15;;
22786;SDS011;63134;52.020;4.714;2022-10-31T11:16:02;30.55;;;18.13;;
22786;SDS011;63134;52.020;4.714;2022-10-31T11:18:53;27.85;;;17.27;;
22786;SDS011;63134;52.020;4.714;2022-10-31T11:21:52;29.70;;;18.35;;
22786;SDS011;63134;52.020;4.714;2022-10-31T11:24:40;24.58;;;17.83;;
22786;SDS011;63134;52.020;4.714;2022-10-31T11:27:26;27.48;;;19.33;;
22786;SDS011;63134;52.020;4.714;2022-10-31T11:30:12;25.13;;;17.67;;
22786;SDS011;63134;52.020;4.714;2022-10-31T11:32:58;28.67;;;19.05;;
22786;SDS011;63134;52.020;4.714;2022-10-31T11:35:45;33.85;;;18.20;;
22786;SDS011;63134;52.020;4.714;2022-10-31T11:38:39;27.23;;;19.50;;
22786;SDS011;63134;52.020;4.714;2022-10-31T11:41:29;28.00;;;18.23;;
22786;SDS011;63134;52.020;4.714;2022-10-31T11:44:21;32.75;;;20.00;;
22786;SDS011;63134;52.020;4.714;2022-10-31T11:47:12;30.23;;;19.52;;
22786;SDS011;63134;52.020;4.714;2022-10-31T11:50:02;27.98;;;19.55;;
22786;SDS011;63134;52.020;4.714;2022-10-31T11:52:54;27.90;;;19.23;;
22786;SDS011;63134;52.020;4.714;2022-10-31T11:55:40;30.75;;;20.08;;
22786;SDS011;63134;52.020;4.714;2022-10-31T11:58:25;29.40;;;20.00;;
22786;SDS011;63134;52.020;4.714;2022-10-31T12:01:27;35.33;;;19.50;;
22786;SDS011;63134;52.020;4.714;2022-10-31T12:04:30;28.90;;;19.17;;
22786;SDS011;63134;52.020;4.714;2022-10-31T12:07:19;28.65;;;19.77;;
22786;SDS011;63134;52.020;4.714;2022-10-31T12:10:11;29.08;;;19.35;;
22786;SDS011;63134;52.020;4.714;2022-10-31T12:13:02;29.38;;;18.67;;
22786;SDS011;63134;52.020;4.714;2022-10-31T12:16:35;26.63;;;17.20;;
22786;SDS011;63134;52.020;4.714;2022-10-31T12:22:52;25.88;;;16.88;;
22786;SDS011;63134;52.020;4.714;2022-10-31T12:26:07;23.85;;;16.05;;
22786;SDS011;63134;52.020;4.714;2022-10-31T12:32:20;27.55;;;17.25;;
22786;SDS011;63134;52.020;4.714;2022-10-31T12:41:43;34.13;;;20.10;;
22786;SDS011;63134;52.020;4.714;2022-10-31T12:48:04;39.33;;;22.63;;
22786;SDS011;63134;52.020;4.714;2022-10-31T12:54:16;37.97;;;24.77;;
22786;SDS011;63134;52.020;4.714;2022-10-31T12:57:45;38.38;;;25.10;;
22786;SDS011;63134;52.020;4.714;2022-10-31T13:00:32;35.33;;;23.35;;
22786;SDS011;63134;52.020;4.714;2022-10-31T13:03:33;36.22;;;24.33;;
22786;SDS011;63134;52.020;4.714;2022-10-31T13:06:48;42.78;;;25.58;;
22786;SDS011;63134;52.020;4.714;2022-10-31T13:09:40;37.30;;;25.33;;
22786;SDS011;63134;52.020;4.714;2022-10-31T13:12:41;44.17;;;25.75;;
22786;SDS011;63134;52.020;4.714;2022-10-31T13:15:28;40.30;;;26.85;;
22786;SDS011;63134;52.020;4.714;2022-10-31T13:18:28;40.55;;;26.30;;
22786;SDS011;63134;52.020;4.714;2022-10-31T13:21:21;48.00;;;27.67;;
22786;SDS011;63134;52.020;4.714;2022-10-31T13:24:12;46.25;;;28.13;;
22786;SDS011;63134;52.020;4.714;2022-10-31T13:27:07;39.83;;;28.77;;
22786;SDS011;63134;52.020;4.714;2022-10-31T13:33:01;47.10;;;30.25;;
22786;SDS011;63134;52.020;4.714;2022-10-31T13:36:08;42.65;;;30.02;;
22786;SDS011;63134;52.020;4.714;2022-10-31T13:42:29;48.78;;;30.83;;
22786;SDS011;63134;52.020;4.714;2022-10-31T13:45:18;52.25;;;30.77;;
22786;SDS011;63134;52.020;4.714;2022-10-31T13:51:04;46.03;;;31.20;;
22786;SDS011;63134;52.020;4.714;2022-10-31T13:56:40;50.40;;;31.15;;
22786;SDS011;63134;52.020;4.714;2022-10-31T13:59:26;50.67;;;32.40;;
22786;SDS011;63134;52.020;4.714;2022-10-31T14:02:17;54.95;;;31.95;;
22786;SDS011;63134;52.020;4.714;2022-10-31T14:05:26;48.35;;;31.73;;
22786;SDS011;63134;52.020;4.714;2022-10-31T14:08:19;49.25;;;31.25;;
22786;SDS011;63134;52.020;4.714;2022-10-31T14:11:08;50.83;;;30.10;;
22786;SDS011;63134;52.020;4.714;2022-10-31T14:14:20;53.05;;;34.05;;
22786;SDS011;63134;52.020;4.714;2022-10-31T14:17:19;50.15;;;31.55;;
22786;SDS011;63134;52.020;4.714;2022-10-31T14:23:28;53.40;;;32.17;;
22786;SDS011;63134;52.020;4.714;2022-10-31T14:32:32;54.60;;;32.53;;
22786;SDS011;63134;52.020;4.714;2022-10-31T14:35:13;53.78;;;33.35;;
22786;SDS011;63134;52.020;4.714;2022-10-31T14:38:11;52.40;;;33.15;;
22786;SDS011;63134;52.020;4.714;2022-10-31T14:53:36;55.60;;;31.90;;
22786;SDS011;63134;52.020;4.714;2022-10-31T14:56:53;49.60;;;30.90;;
22786;SDS011;63134;52.020;4.714;2022-10-31T14:59:42;52.78;;;31.45;;
22786;SDS011;63134;52.020;4.714;2022-10-31T15:05:21;56.90;;;32.22;;
22786;SDS011;63134;52.020;4.714;2022-10-31T15:08:25;53.97;;;32.67;;
22786;SDS011;63134;52.020;4.714;2022-10-31T15:11:27;55.70;;;31.92;;
22786;SDS011;63134;52.020;4.714;2022-10-31T15:14:23;50.67;;;32.30;;
22786;SDS011;63134;52.020;4.714;2022-10-31T15:17:11;60.13;;;33.90;;
22786;SDS011;63134;52.020;4.714;2022-10-31T15:19:59;64.20;;;33.28;;
22786;SDS011;63134;52.020;4.714;2022-10-31T15:22:45;54.55;;;32.90;;
22786;SDS011;63134;52.020;4.714;2022-10-31T15:25:33;59.53;;;34.13;;
22786;SDS011;63134;52.020;4.714;2022-10-31T15:28:22;59.00;;;32.45;;
22786;SDS011;63134;52.020;4.714;2022-10-31T15:31:13;61.50;;;33.85;;
22786;SDS011;63134;52.020;4.714;2022-10-31T15:34:46;60.92;;;34.30;;
22786;SDS011;63134;52.020;4.714;2022-10-31T15:37:09;63.35;;;35.42;;
22786;SDS011;63134;52.020;4.714;2022-10-31T15:40:05;68.28;;;35.72;;
22786;SDS011;63134;52.020;4.714;2022-10-31T15:43:00;65.40;;;35.95;;
22786;SDS011;63134;52.020;4.714;2022-10-31T15:45:49;64.38;;;35.03;;
22786;SDS011;63134;52.020;4.714;2022-10-31T15:48:35;63.97;;;35.53;;
22786;SDS011;63134;52.020;4.714;2022-10-31T15:51:28;60.78;;;34.13;;
22786;SDS011;63134;52.020;4.714;2022-10-31T15:54:16;55.92;;;35.65;;
22786;SDS011;63134;52.020;4.714;2022-10-31T15:57:02;60.88;;;36.90;;
22786;SDS011;63134;52.020;4.714;2022-10-31T15:59:54;75.45;;;36.10;;
22786;SDS011;63134;52.020;4.714;2022-10-31T16:02:41;63.30;;;35.95;;
22786;SDS011;63134;52.020;4.714;2022-10-31T16:05:32;60.95;;;34.53;;
22786;SDS011;63134;52.020;4.714;2022-10-31T16:14:19;69.05;;;36.13;;
22786;SDS011;63134;52.020;4.714;2022-10-31T16:17:13;71.82;;;37.92;;
22786;SDS011;63134;52.020;4.714;2022-10-31T16:20:04;70.18;;;34.97;;
22786;SDS011;63134;52.020;4.714;2022-10-31T16:22:51;67.53;;;35.70;;
22786;SDS011;63134;52.020;4.714;2022-10-31T16:25:38;69.80;;;36.03;;
22786;SDS011;63134;52.020;4.714;2022-10-31T16:28:25;63.03;;;36.58;;
22786;SDS011;63134;52.020;4.714;2022-10-31T16:31:30;70.78;;;36.60;;
22786;SDS011;63134;52.020;4.714;2022-10-31T16:34:22;68.38;;;36.10;;
22786;SDS011;63134;52.020;4.714;2022-10-31T16:37:11;72.97;;;34.65;;
22786;SDS011;63134;52.020;4.714;2022-10-31T16:39:56;58.20;;;33.97;;
22786;SDS011;63134;52.020;4.714;2022-10-31T16:42:42;63.60;;;32.53;;
22786;SDS011;63134;52.020;4.714;2022-10-31T16:45:31;61.15;;;31.60;;
22786;SDS011;63134;52.020;4.714;2022-10-31T16:48:18;67.30;;;31.83;;
22786;SDS011;63134;52.020;4.714;2022-10-31T16:51:07;53.47;;;29.30;;
22786;SDS011;63134;52.020;4.714;2022-10-31T16:53:52;52.72;;;28.25;;
22786;SDS011;63134;52.020;4.714;2022-10-31T16:56:38;57.65;;;28.77;;
22786;SDS011;63134;52.020;4.714;2022-10-31T16:59:24;58.20;;;27.55;;
22786;SDS011;63134;52.020;4.714;2022-10-31T17:02:13;50.88;;;26.67;;
22786;SDS011;63134;52.020;4.714;2022-10-31T17:05:00;49.33;;;26.10;;
22786;SDS011;63134;52.020;4.714;2022-10-31T17:07:45;43.70;;;25.50;;
22786;SDS011;63134;52.020;4.714;2022-10-31T17:10:31;58.55;;;26.08;;
22786;SDS011;63134;52.020;4.714;2022-10-31T17:13:21;50.42;;;26.85;;
22786;SDS011;63134;52.020;4.714;2022-10-31T17:16:09;52.92;;;26.85;;
22786;SDS011;63134;52.020;4.714;2022-10-31T17:18:57;57.85;;;27.13;;
22786;SDS011;63134;52.020;4.714;2022-10-31T17:21:42;54.03;;;26.75;;
22786;SDS011;63134;52.020;4.714;2022-10-31T17:24:28;66.28;;;29.15;;
22786;SDS011;63134;52.020;4.714;2022-10-31T17:27:13;60.13;;;30.00;;
22786;SDS011;63134;52.020;4.714;2022-10-31T17:29:59;60.40;;;28.95;;
22786;SDS011;63134;52.020;4.714;2022-10-31T17:32:45;62.47;;;29.48;;
22786;SDS011;63134;52.020;4.714;2022-10-31T17:35:32;53.33;;;30.27;;
22786;SDS011;63134;52.020;4.714;2022-10-31T17:38:18;69.32;;;31.65;;
22786;SDS011;63134;52.020;4.714;2022-10-31T17:41:04;63.58;;;31.40;;
22786;SDS011;63134;52.020;4.714;2022-10-31T17:43:58;71.75;;;32.08;;
22786;SDS011;63134;52.020;4.714;2022-10-31T17:46:44;66.32;;;32.88;;
22786;SDS011;63134;52.020;4.714;2022-10-31T17:49:29;75.90;;;35.47;;
22786;SDS011;63134;52.020;4.714;2022-10-31T17:52:15;76.38;;;36.33;;
22786;SDS011;63134;52.020;4.714;2022-10-31T17:55:00;73.50;;;37.10;;
22786;SDS011;63134;52.020;4.714;2022-10-31T17:57:46;74.20;;;37.38;;
22786;SDS011;63134;52.020;4.714;2022-10-31T18:00:31;85.40;;;38.38;;
22786;SDS011;63134;52.020;4.714;2022-10-31T18:03:17;81.80;;;40.42;;
22786;SDS011;63134;52.020;4.714;2022-10-31T18:06:03;78.82;;;38.85;;
22786;SDS011;63134;52.020;4.714;2022-10-31T18:08:49;91.15;;;39.58;;
22786;SDS011;63134;52.020;4.714;2022-10-31T18:11:34;80.03;;;40.17;;
22786;SDS011;63134;52.020;4.714;2022-10-31T18:14:20;78.53;;;39.38;;
22786;SDS011;63134;52.020;4.714;2022-10-31T18:17:05;80.15;;;40.40;;
22786;SDS011;63134;52.020;4.714;2022-10-31T18:19:55;83.72;;;39.53;;
22786;SDS011;63134;52.020;4.714;2022-10-31T18:22:40;83.43;;;39.33;;
22786;SDS011;63134;52.020;4.714;2022-10-31T18:25:25;76.93;;;37.72;;
22786;SDS011;63134;52.020;4.714;2022-10-31T18:28:11;79.18;;;38.35;;
22786;SDS011;63134;52.020;4.714;2022-10-31T18:31:01;82.05;;;39.25;;
22786;SDS011;63134;52.020;4.714;2022-10-31T18:33:47;77.93;;;36.22;;
22786;SDS011;63134;52.020;4.714;2022-10-31T18:36:35;69.97;;;37.50;;
22786;SDS011;63134;52.020;4.714;2022-10-31T18:39:20;61.13;;;33.65;;
22786;SDS011;63134;52.020;4.714;2022-10-31T18:42:06;64.75;;;32.88;;
22786;SDS011;63134;52.020;4.714;2022-10-31T18:44:51;61.88;;;33.65;;